createdAt,value
2018-12-30T00:00:35.534Z,3.30
2018-12-30T00:03:04.408Z,3.30
2018-12-30T00:05:33.935Z,3.40
2018-12-30T00:08:02.367Z,3.30
2018-12-30T00:10:31.012Z,3.20
2018-12-30T00:12:59.560Z,3.00
2018-12-30T00:15:28.211Z,2.90
2018-12-30T00:17:56.540Z,2.90
2018-12-30T00:20:24.875Z,3.00
2018-12-30T00:22:53.240Z,2.90
2018-12-30T00:25:21.687Z,2.80
2018-12-30T00:27:50.412Z,2.80
2018-12-30T00:30:18.855Z,2.80
2018-12-30T00:32:47.388Z,2.70
2018-12-30T00:35:15.818Z,2.70
2018-12-30T00:37:44.354Z,2.60
2018-12-30T00:40:12.788Z,2.40
2018-12-30T00:42:43.177Z,2.60
2018-12-30T00:45:11.605Z,2.80
2018-12-30T00:47:40.049Z,2.90
2018-12-30T00:50:08.384Z,2.90
2018-12-30T00:52:37.493Z,3.00
2018-12-30T00:55:06.134Z,3.10
2018-12-30T00:57:34.468Z,2.90
2018-12-30T01:00:03.229Z,2.70
2018-12-30T01:02:33.440Z,2.80
2018-12-30T01:05:01.777Z,2.80
2018-12-30T01:07:30.224Z,2.60
2018-12-30T01:09:58.957Z,2.70
2018-12-30T01:12:28.328Z,2.90
2018-12-30T01:14:56.659Z,2.80
2018-12-30T01:17:26.800Z,2.80
2018-12-30T01:19:55.124Z,2.70
2018-12-30T01:22:23.581Z,2.70
2018-12-30T01:24:52.006Z,2.60
2018-12-30T01:27:20.559Z,2.70
2018-12-30T01:29:48.994Z,2.80
2018-12-30T01:32:17.408Z,2.80
2018-12-30T01:34:45.734Z,2.90
2018-12-30T01:37:14.453Z,2.80
2018-12-30T01:39:43.503Z,2.80
2018-12-30T01:42:11.935Z,2.80
2018-12-30T01:44:42.075Z,2.80
2018-12-30T01:47:10.601Z,2.60
2018-12-30T01:49:38.948Z,2.70
2018-12-30T01:52:07.468Z,2.90
2018-12-30T01:54:35.895Z,2.80
2018-12-30T01:57:04.339Z,2.70
2018-12-30T01:59:32.670Z,2.70
2018-12-30T02:02:01.024Z,2.80
2018-12-30T02:04:31.244Z,2.90
2018-12-30T02:06:59.681Z,2.70
2018-12-30T02:09:28.110Z,2.60
2018-12-30T02:11:56.587Z,2.70
2018-12-30T02:14:24.908Z,2.60
2018-12-30T02:16:53.675Z,2.80
2018-12-30T02:19:22.094Z,3.00
2018-12-30T02:21:51.045Z,3.00
2018-12-30T02:24:19.570Z,3.10
2018-12-30T02:26:48.422Z,2.90
2018-12-30T02:29:17.055Z,3.00
2018-12-30T02:31:45.600Z,2.90
2018-12-30T02:34:13.924Z,2.80
2018-12-30T02:36:44.041Z,3.00
2018-12-30T02:39:12.478Z,2.90
2018-12-30T02:41:41.116Z,2.80
2018-12-30T02:44:10.257Z,2.90
2018-12-30T02:46:38.683Z,3.00
2018-12-30T02:49:07.037Z,3.10
2018-12-30T02:51:35.663Z,3.00
2018-12-30T02:54:04.461Z,3.00
2018-12-30T02:56:32.781Z,2.90
2018-12-30T02:59:01.224Z,3.00
2018-12-30T03:01:29.659Z,3.00
2018-12-30T03:03:58.055Z,3.10
2018-12-30T03:06:26.779Z,3.10
2018-12-30T03:08:55.230Z,3.10
2018-12-30T03:11:24.151Z,3.20
2018-12-30T03:13:53.423Z,3.30
2018-12-30T03:16:21.766Z,3.00
2018-12-30T03:18:50.405Z,3.00
2018-12-30T03:21:18.834Z,3.00
2018-12-30T03:23:47.353Z,3.10
2018-12-30T03:26:17.393Z,3.20
2018-12-30T03:28:46.539Z,3.20
2018-12-30T03:31:15.173Z,3.20
2018-12-30T03:33:43.693Z,3.20
2018-12-30T03:36:12.030Z,2.90
2018-12-30T03:38:40.461Z,3.00
2018-12-30T03:41:10.100Z,3.00
2018-12-30T03:43:38.541Z,3.10
2018-12-30T03:46:08.754Z,3.20
2018-12-30T03:48:37.075Z,3.20
2018-12-30T03:51:06.113Z,3.20
2018-12-30T03:53:34.606Z,3.10
2018-12-30T03:56:04.751Z,3.00
2018-12-30T03:58:33.271Z,3.10
2018-12-30T04:01:01.698Z,3.00
2018-12-30T04:03:30.198Z,3.10
2018-12-30T04:05:58.635Z,3.10
2018-12-30T04:08:26.974Z,3.10
2018-12-30T04:10:55.294Z,2.90
2018-12-30T04:13:23.823Z,2.90
2018-12-30T04:15:52.148Z,3.00
2018-12-30T04:18:22.293Z,3.00
2018-12-30T04:20:50.637Z,2.90
2018-12-30T04:23:19.078Z,3.00
2018-12-30T04:25:47.504Z,3.00
2018-12-30T04:28:15.856Z,3.10
2018-12-30T04:30:45.978Z,2.90
2018-12-30T04:33:14.439Z,2.70
2018-12-30T04:35:42.783Z,2.90
2018-12-30T04:38:11.419Z,2.90
2018-12-30T04:40:39.871Z,3.00
2018-12-30T04:43:08.359Z,3.00
2018-12-30T04:45:36.710Z,3.00
2018-12-30T04:48:05.123Z,3.10
2018-12-30T04:50:33.546Z,3.10
2018-12-30T04:53:01.942Z,3.10
2018-12-30T04:55:30.295Z,2.80
2018-12-30T04:58:00.322Z,2.80
2018-12-30T05:00:29.125Z,2.70
2018-12-30T05:02:57.599Z,2.80
2018-12-30T05:05:26.032Z,2.90
2018-12-30T05:07:54.485Z,3.00
2018-12-30T05:10:23.001Z,3.00
2018-12-30T05:12:51.494Z,3.00
2018-12-30T05:15:19.920Z,2.70
2018-12-30T05:17:48.265Z,2.60
2018-12-30T05:20:16.584Z,2.50
2018-12-30T05:22:45.031Z,2.50
2018-12-30T05:25:13.463Z,2.30
2018-12-30T05:27:41.915Z,2.40
2018-12-30T05:30:10.534Z,2.30
2018-12-30T05:32:39.221Z,2.20
2018-12-30T05:35:07.550Z,2.00
2018-12-30T05:37:37.680Z,2.20
2018-12-30T05:40:06.113Z,2.20
2018-12-30T05:42:34.562Z,2.00
2018-12-30T05:45:05.167Z,2.10
2018-12-30T05:47:33.497Z,2.20
2018-12-30T05:50:01.836Z,2.10
2018-12-30T05:52:30.382Z,2.10
2018-12-30T05:54:58.815Z,2.10
2018-12-30T05:57:27.142Z,2.00
2018-12-30T05:59:55.471Z,2.10
2018-12-30T06:02:23.827Z,2.00
2018-12-30T06:04:52.156Z,2.00
2018-12-30T06:07:21.696Z,1.90
2018-12-30T06:09:51.921Z,1.90
2018-12-30T06:12:20.495Z,1.90
2018-12-30T06:14:48.823Z,1.90
2018-12-30T06:17:17.258Z,1.90
2018-12-30T06:19:45.692Z,1.80
2018-12-30T06:22:14.269Z,1.90
2018-12-30T06:24:42.731Z,2.10
2018-12-30T06:27:11.166Z,1.90
2018-12-30T06:29:40.611Z,1.80
2018-12-30T06:32:09.063Z,1.90
2018-12-30T06:34:37.402Z,2.00
2018-12-30T06:37:05.826Z,1.90
2018-12-30T06:39:34.757Z,1.80
2018-12-30T06:42:03.206Z,1.80
2018-12-30T06:44:31.541Z,1.90
2018-12-30T06:46:59.885Z,2.00
2018-12-30T06:49:30.610Z,2.00
2018-12-30T06:52:00.039Z,1.90
2018-12-30T06:54:28.473Z,1.90
2018-12-30T06:56:57.603Z,2.00
2018-12-30T06:59:27.817Z,2.00
2018-12-30T07:01:56.303Z,2.10
2018-12-30T07:04:24.742Z,2.00
2018-12-30T07:06:53.292Z,2.10
2018-12-30T07:09:23.012Z,2.10
2018-12-30T07:11:51.463Z,2.00
2018-12-30T07:14:20.296Z,2.00
2018-12-30T07:16:49.450Z,2.00
2018-12-30T07:19:18.876Z,2.30
2018-12-30T07:21:48.616Z,2.40
2018-12-30T07:24:16.971Z,2.50
2018-12-30T07:26:46.304Z,2.40
2018-12-30T07:29:14.681Z,2.10
2018-12-30T07:31:43.032Z,2.10
2018-12-30T07:34:11.500Z,2.10
2018-12-30T07:36:40.364Z,2.30
2018-12-30T07:39:09.150Z,2.40
2018-12-30T07:41:38.648Z,2.30
2018-12-30T07:44:07.402Z,2.10
2018-12-30T07:46:36.489Z,2.00
2018-12-30T07:49:04.906Z,2.20
2018-12-30T07:51:35.566Z,2.10
2018-12-30T07:54:04.036Z,2.20
2018-12-30T07:56:32.395Z,2.40
2018-12-30T07:59:00.791Z,2.60
2018-12-30T08:01:29.247Z,2.60
2018-12-30T08:03:58.029Z,2.60
2018-12-30T08:06:26.489Z,2.70
2018-12-30T08:08:54.819Z,2.60
2018-12-30T08:11:23.526Z,2.60
2018-12-30T08:13:52.182Z,2.70
2018-12-30T08:16:20.915Z,2.60
2018-12-30T08:18:49.656Z,2.70
2018-12-30T08:21:18.011Z,2.80
2018-12-30T08:23:46.616Z,2.90
2018-12-30T08:26:15.262Z,3.10
2018-12-30T08:28:45.380Z,3.20
2018-12-30T08:31:13.770Z,3.10
2018-12-30T08:33:42.928Z,3.20
2018-12-30T08:36:11.270Z,3.10
2018-12-30T08:38:39.710Z,3.10
2018-12-30T08:41:08.149Z,3.20
2018-12-30T08:43:36.536Z,3.30
2018-12-30T08:46:05.079Z,3.20
2018-12-30T08:48:33.524Z,3.40
2018-12-30T08:51:01.994Z,3.30
2018-12-30T08:53:30.553Z,3.30
2018-12-30T08:55:58.998Z,3.20
2018-12-30T08:58:27.338Z,3.50
2018-12-30T09:00:57.770Z,3.50
2018-12-30T09:03:26.288Z,3.40
2018-12-30T09:05:55.033Z,3.50
2018-12-30T09:08:23.668Z,3.50
2018-12-30T09:10:52.150Z,3.60
2018-12-30T09:13:20.643Z,3.60
2018-12-30T09:15:48.978Z,3.60
2018-12-30T09:18:17.438Z,3.60
2018-12-30T09:20:45.881Z,3.80
2018-12-30T09:23:14.543Z,3.90
2018-12-30T09:25:43.154Z,4.00
2018-12-30T09:28:11.660Z,4.00
2018-12-30T09:30:40.151Z,4.10
2018-12-30T09:33:08.721Z,4.20
2018-12-30T09:35:37.275Z,4.30
2018-12-30T09:38:06.352Z,4.20
2018-12-30T09:40:36.535Z,4.30
2018-12-30T09:43:04.986Z,4.30
2018-12-30T09:45:33.834Z,4.30
2018-12-30T09:48:02.222Z,4.20
2018-12-30T09:50:30.665Z,4.40
2018-12-30T09:52:59.164Z,4.30
2018-12-30T09:55:28.001Z,4.20
2018-12-30T09:57:56.496Z,4.10
2018-12-30T10:00:32.259Z,4.20
2018-12-30T10:03:01.334Z,4.40
2018-12-30T10:05:29.774Z,4.50
2018-12-30T10:07:58.616Z,4.40
2018-12-30T10:10:27.123Z,4.30
2018-12-30T10:12:55.685Z,4.40
2018-12-30T10:15:24.301Z,4.50
2018-12-30T10:17:52.743Z,4.40
2018-12-30T10:20:21.633Z,4.50
2018-12-30T10:22:50.073Z,4.60
2018-12-30T10:25:18.432Z,4.70
2018-12-30T10:27:47.411Z,4.80
2018-12-30T10:30:17.998Z,4.80
2018-12-30T10:32:46.464Z,4.80
2018-12-30T10:35:14.815Z,4.90
2018-12-30T10:37:44.583Z,4.60
2018-12-30T10:40:13.277Z,4.70
2018-12-30T10:42:41.749Z,4.80
2018-12-30T10:45:10.091Z,4.60
2018-12-30T10:47:38.436Z,4.70
2018-12-30T10:50:06.839Z,5.10
2018-12-30T10:52:35.324Z,5.10
2018-12-30T10:55:03.875Z,5.10
2018-12-30T10:57:32.225Z,5.10
2018-12-30T11:00:00.583Z,5.20
2018-12-30T11:02:29.165Z,5.30
2018-12-30T11:04:58.626Z,5.40
2018-12-30T11:07:27.572Z,5.40
2018-12-30T11:09:55.931Z,5.50
2018-12-30T11:12:26.181Z,5.50
2018-12-30T11:14:54.652Z,5.40
2018-12-30T11:17:22.992Z,5.60
2018-12-30T11:19:51.342Z,5.60
2018-12-30T11:22:19.756Z,5.70
2018-12-30T11:24:49.939Z,5.70
2018-12-30T11:27:18.276Z,5.80
2018-12-30T11:29:46.632Z,5.80
2018-12-30T11:32:16.293Z,5.90
2018-12-30T11:34:44.737Z,6.00
2018-12-30T11:37:13.188Z,6.00
2018-12-30T11:39:42.720Z,6.10
2018-12-30T11:42:11.108Z,6.10
2018-12-30T11:44:39.460Z,6.20
2018-12-30T11:47:07.820Z,6.30
2018-12-30T11:49:36.359Z,6.40
2018-12-30T11:52:04.759Z,6.60
2018-12-30T11:54:33.223Z,6.80
2018-12-30T11:57:01.869Z,7.00
2018-12-30T11:59:30.424Z,7.10
2018-12-30T12:01:58.841Z,7.10
2018-12-30T12:04:27.499Z,7.00
2018-12-30T12:06:55.857Z,6.90
2018-12-30T12:09:24.321Z,6.80
2018-12-30T12:11:52.897Z,6.70
2018-12-30T12:14:21.259Z,6.60
2018-12-30T12:16:49.707Z,6.60
2018-12-30T12:19:18.401Z,6.60
2018-12-30T12:21:46.895Z,6.70
2018-12-30T12:24:15.353Z,6.70
2018-12-30T12:26:44.308Z,6.90
2018-12-30T12:29:12.675Z,7.20
2018-12-30T12:31:41.128Z,7.40
2018-12-30T12:34:09.647Z,7.50
2018-12-30T12:36:39.777Z,7.70
2018-12-30T12:39:08.229Z,7.90
2018-12-30T12:41:36.761Z,8.00
2018-12-30T12:44:05.211Z,8.20
2018-12-30T12:46:33.633Z,8.40
2018-12-30T12:49:02.882Z,8.50
2018-12-30T12:51:31.334Z,8.50
2018-12-30T12:53:59.721Z,8.40
2018-12-30T12:56:28.211Z,8.50
2018-12-30T12:58:56.575Z,8.30
2018-12-30T13:01:25.127Z,8.30
2018-12-30T13:03:53.643Z,8.30
2018-12-30T13:06:22.098Z,8.30
2018-12-30T13:08:50.557Z,8.10
2018-12-30T13:11:19.022Z,8.10
2018-12-30T13:13:48.496Z,8.00
2018-12-30T13:16:17.266Z,7.90
2018-12-30T13:18:45.620Z,7.80
2018-12-30T13:21:14.089Z,7.90
2018-12-30T13:23:42.517Z,7.90
2018-12-30T13:26:12.376Z,7.70
2018-12-30T13:28:40.941Z,7.70
2018-12-30T13:31:09.396Z,7.70
2018-12-30T13:33:37.785Z,7.70
2018-12-30T13:36:10.077Z,7.80
2018-12-30T13:38:38.642Z,7.70
2018-12-30T13:41:06.987Z,7.70
2018-12-30T13:43:35.500Z,7.70
2018-12-30T13:46:05.898Z,7.60
2018-12-30T13:48:34.542Z,7.60
2018-12-30T13:51:04.718Z,7.60
2018-12-30T13:53:33.195Z,7.70
2018-12-30T13:56:01.651Z,7.70
2018-12-30T13:58:30.165Z,7.70
2018-12-30T14:00:58.663Z,7.70
2018-12-30T14:03:28.185Z,7.70
2018-12-30T14:05:56.564Z,7.70
2018-12-30T14:08:25.026Z,7.70
2018-12-30T14:10:53.381Z,7.70
2018-12-30T14:13:21.801Z,7.70
2018-12-30T14:15:51.019Z,7.70
2018-12-30T14:18:19.623Z,7.70
2018-12-30T14:20:47.966Z,7.70
2018-12-30T14:23:16.802Z,7.80
2018-12-30T14:25:45.312Z,7.80
2018-12-30T14:28:13.770Z,7.90
2018-12-30T14:30:45.038Z,7.90
2018-12-30T14:33:13.516Z,7.90
2018-12-30T14:35:42.068Z,7.90
2018-12-30T14:38:10.520Z,8.00
2018-12-30T14:40:39.082Z,8.00
2018-12-30T14:43:07.530Z,8.00
2018-12-30T14:45:36.107Z,8.00
2018-12-30T14:48:04.592Z,8.00
2018-12-30T14:50:33.066Z,8.00
2018-12-30T14:53:01.704Z,8.00
2018-12-30T14:55:30.186Z,8.00
2018-12-30T14:57:58.897Z,8.00
2018-12-30T15:00:28.114Z,8.10
2018-12-30T15:02:56.509Z,8.00
2018-12-30T15:05:25.164Z,8.00
2018-12-30T15:07:53.521Z,8.00
2018-12-30T15:10:21.879Z,8.00
2018-12-30T15:12:50.288Z,8.00
2018-12-30T15:15:20.509Z,8.00
2018-12-30T15:17:48.909Z,8.00
2018-12-30T15:20:17.280Z,7.90
2018-12-30T15:22:47.372Z,7.80
2018-12-30T15:25:18.829Z,7.90
2018-12-30T15:27:47.643Z,7.80
2018-12-30T15:30:17.141Z,7.80
2018-12-30T15:32:45.591Z,7.70
2018-12-30T15:35:14.161Z,7.70
2018-12-30T15:37:42.723Z,7.60
2018-12-30T15:40:11.088Z,7.60
2018-12-30T15:42:40.627Z,7.60
2018-12-30T15:45:09.112Z,7.60
2018-12-30T15:47:39.086Z,7.70
2018-12-30T15:50:08.080Z,7.70
2018-12-30T15:52:36.483Z,7.70
2018-12-30T15:55:05.312Z,7.60
2018-12-30T15:57:33.942Z,7.60
2018-12-30T16:00:02.405Z,7.70
2018-12-30T16:02:32.669Z,7.60
2018-12-30T16:05:01.210Z,7.50
2018-12-30T16:07:29.669Z,7.50
2018-12-30T16:09:59.849Z,7.50
2018-12-30T16:12:28.209Z,7.50
2018-12-30T16:14:56.702Z,7.50
2018-12-30T16:17:25.172Z,7.50
2018-12-30T16:19:53.752Z,7.50
2018-12-30T16:22:23.508Z,7.40
2018-12-30T16:24:51.956Z,7.40
2018-12-30T16:27:20.354Z,7.40
2018-12-30T16:29:48.822Z,7.40
2018-12-30T16:32:17.735Z,7.40
2018-12-30T16:34:46.286Z,7.30
2018-12-30T16:37:14.747Z,7.40
2018-12-30T16:39:43.488Z,7.40
2018-12-30T16:42:12.243Z,7.40
2018-12-30T16:44:42.509Z,7.50
2018-12-30T16:47:10.886Z,7.50
2018-12-30T16:49:39.354Z,7.50
2018-12-30T16:52:07.804Z,7.50
2018-12-30T16:54:36.176Z,7.50
2018-12-30T16:57:04.653Z,7.50
2018-12-30T16:59:33.361Z,7.50
2018-12-30T17:02:01.827Z,7.50
2018-12-30T17:04:30.199Z,7.50
2018-12-30T17:06:58.540Z,7.50
2018-12-30T17:09:27.043Z,7.50
2018-12-30T17:11:55.430Z,7.40
2018-12-30T17:14:23.800Z,7.40
2018-12-30T17:16:52.234Z,7.40
2018-12-30T17:19:20.708Z,7.40
2018-12-30T17:21:49.157Z,7.40
2018-12-30T17:24:17.528Z,7.30
2018-12-30T17:26:46.264Z,7.30
2018-12-30T17:29:15.825Z,7.10
2018-12-30T17:31:44.509Z,7.10
2018-12-30T17:34:12.952Z,7.00
2018-12-30T17:36:44.363Z,7.00
2018-12-30T17:39:12.820Z,7.00
2018-12-30T17:41:41.160Z,7.00
2018-12-30T17:44:09.645Z,7.10
2018-12-30T17:46:38.204Z,7.20
2018-12-30T17:49:10.299Z,7.20
2018-12-30T17:51:39.013Z,7.20
2018-12-30T17:54:15.101Z,7.10
2018-12-30T17:56:39.258Z,7.00
2018-12-30T17:59:09.456Z,7.00
2018-12-30T18:01:38.568Z,6.90
2018-12-30T18:04:07.219Z,7.00
2018-12-30T18:06:35.700Z,7.10
2018-12-30T18:09:05.500Z,7.10
2018-12-30T18:11:34.671Z,7.10
2018-12-30T18:14:03.173Z,7.10
2018-12-30T18:16:31.575Z,7.00
2018-12-30T18:19:00.729Z,7.00
2018-12-30T18:21:29.225Z,7.00
2018-12-30T18:23:57.706Z,7.00
2018-12-30T18:26:26.171Z,6.90
2018-12-30T18:28:54.720Z,6.90
2018-12-30T18:31:23.191Z,6.90
2018-12-30T18:33:51.624Z,6.80
2018-12-30T18:36:20.071Z,6.90
2018-12-30T18:38:48.415Z,6.90
2018-12-30T18:41:16.867Z,6.90
2018-12-30T18:43:45.352Z,6.90
2018-12-30T18:46:13.966Z,6.80
2018-12-30T18:48:42.454Z,6.80
2018-12-30T18:51:10.925Z,6.90
2018-12-30T18:53:39.608Z,6.80
2018-12-30T18:56:08.530Z,6.70
2018-12-30T18:58:37.045Z,6.70
2018-12-30T19:01:05.696Z,6.70
2018-12-30T19:03:34.269Z,6.80
2018-12-30T19:06:04.008Z,6.70
2018-12-30T19:08:32.515Z,6.70
2018-12-30T19:11:00.861Z,6.80
2018-12-30T19:13:29.708Z,6.90
2018-12-30T19:16:00.285Z,6.90
2018-12-30T19:18:28.918Z,6.90
2018-12-30T19:20:59.481Z,6.90
2018-12-30T19:23:28.017Z,6.80
2018-12-30T19:26:01.049Z,6.80
2018-12-30T19:28:27.122Z,6.90
2018-12-30T19:30:55.593Z,6.90
2018-12-30T19:33:25.828Z,6.90
2018-12-30T19:35:54.177Z,7.00
2018-12-30T19:38:22.837Z,7.10
2018-12-30T19:40:51.216Z,7.00
2018-12-30T19:43:19.658Z,6.90
2018-12-30T19:45:50.567Z,6.80
2018-12-30T19:48:18.929Z,6.80
2018-12-30T19:50:47.683Z,6.70
2018-12-30T19:53:16.241Z,6.70
2018-12-30T19:55:46.408Z,6.80
2018-12-30T19:58:16.015Z,6.70
2018-12-30T20:00:44.699Z,6.70
2018-12-30T20:03:13.199Z,6.70
2018-12-30T20:05:41.874Z,6.70
2018-12-30T20:08:10.435Z,6.70
2018-12-30T20:10:38.904Z,6.80
2018-12-30T20:13:09.116Z,6.80
2018-12-30T20:15:37.763Z,6.80
2018-12-30T20:18:06.404Z,6.90
2018-12-30T20:20:34.878Z,6.90
2018-12-30T20:23:03.909Z,6.90
2018-12-30T20:25:32.565Z,6.90
2018-12-30T20:28:04.145Z,6.80
2018-12-30T20:30:32.945Z,6.80
2018-12-30T20:33:02.113Z,6.80
2018-12-30T20:35:30.622Z,6.80
2018-12-30T20:37:59.036Z,6.90
2018-12-30T20:40:27.498Z,6.90
2018-12-30T20:42:56.017Z,7.00
2018-12-30T20:45:25.864Z,7.10
2018-12-30T20:47:54.442Z,7.10
2018-12-30T20:50:22.891Z,7.10
2018-12-30T20:52:51.311Z,7.00
2018-12-30T20:55:20.136Z,7.00
2018-12-30T20:57:50.273Z,6.90
2018-12-30T21:00:23.053Z,6.90
2018-12-30T21:02:53.802Z,6.90
2018-12-30T21:05:22.307Z,6.90
2018-12-30T21:07:50.843Z,6.80
2018-12-30T21:10:19.518Z,6.80
2018-12-30T21:12:47.976Z,6.80
2018-12-30T21:15:16.337Z,6.80
2018-12-30T21:17:44.688Z,6.80
2018-12-30T21:20:13.253Z,6.90
2018-12-30T21:22:42.326Z,7.00
2018-12-30T21:25:10.779Z,7.00
2018-12-30T21:27:39.228Z,7.00
2018-12-30T21:30:08.674Z,7.10
2018-12-30T21:32:37.582Z,7.10
2018-12-30T21:35:06.743Z,7.10
2018-12-30T21:37:35.806Z,7.10
2018-12-30T21:40:04.848Z,7.10
2018-12-30T21:42:33.276Z,7.10
2018-12-30T21:45:01.630Z,7.00
2018-12-30T21:47:30.003Z,7.00
2018-12-30T21:49:58.450Z,7.00
2018-12-30T21:52:27.022Z,7.00
2018-12-30T21:54:57.168Z,7.00
2018-12-30T21:57:26.439Z,7.00
2018-12-30T21:59:54.883Z,6.90
2018-12-30T22:02:23.366Z,6.90
2018-12-30T22:04:51.826Z,6.80
2018-12-30T22:07:21.102Z,6.90
2018-12-30T22:09:49.460Z,6.90
2018-12-30T22:12:18.100Z,6.90
2018-12-30T22:14:46.774Z,6.90
2018-12-30T22:17:15.423Z,6.90
2018-12-30T22:19:43.756Z,7.00
2018-12-30T22:22:12.137Z,6.90
2018-12-30T22:24:40.742Z,7.00
2018-12-30T22:27:09.195Z,7.00
2018-12-30T22:29:38.329Z,7.00
2018-12-30T22:32:06.776Z,7.00
2018-12-30T22:34:39.017Z,7.00
2018-12-30T22:37:09.967Z,7.00
2018-12-30T22:39:39.106Z,7.00
2018-12-30T22:42:07.639Z,7.10
2018-12-30T22:44:36.090Z,7.10
2018-12-30T22:47:04.435Z,7.10
2018-12-30T22:49:32.897Z,7.00
2018-12-30T22:52:01.291Z,7.00
2018-12-30T22:54:31.414Z,7.00
2018-12-30T22:56:59.868Z,7.10
2018-12-30T22:59:28.532Z,7.20
2018-12-30T23:01:57.017Z,7.20
2018-12-30T23:04:25.963Z,7.20
2018-12-30T23:06:54.420Z,7.20
2018-12-30T23:09:22.764Z,7.20
2018-12-30T23:11:51.111Z,7.20
2018-12-30T23:14:19.562Z,7.20
2018-12-30T23:16:48.006Z,7.20
2018-12-30T23:19:16.459Z,7.20
2018-12-30T23:21:44.806Z,7.20
2018-12-30T23:24:13.176Z,7.20
2018-12-30T23:26:41.613Z,7.20
2018-12-30T23:29:09.965Z,7.20
2018-12-30T23:31:38.532Z,7.20
2018-12-30T23:34:06.899Z,7.20
2018-12-30T23:36:35.364Z,7.30
2018-12-30T23:39:06.986Z,7.30
2018-12-30T23:41:35.824Z,7.30
2018-12-30T23:44:04.382Z,7.30
2018-12-30T23:46:34.520Z,7.30
2018-12-30T23:49:02.983Z,7.30
2018-12-30T23:51:31.429Z,7.30
2018-12-30T23:53:59.831Z,7.30
2018-12-30T23:56:29.474Z,7.30
2018-12-30T23:58:57.823Z,7.30
